University of Illinois Willard Airport
KCMI : now visible

Airfield :











YOU CAN JOIN US ON...

 
LOGIN :

Register | Disclaimer

   EN    FR    IT 

 









Legend :    VFR   Marginal VFR   IFR   Intensive IFR   Very Intensive IFR
Visi :
Ceiling :
>= 8 km
>= 3000ft
5 to 8 km
1000 to 3000 ft
1500m to 5 km
500 to 1000 ft
800 to 1500m
200 to 500 ft
< 800m
< 200 ft
Symbols :   Thunderstorms  Fog  Heavy snow  Heavy precipitations  Wind > 20 kt






- Airport Elevation : 755 ft
- IATA code : CMI


KCMI - University of Illinois Willard

CURRENT METAR :
  • 092353Z 32020G32KT 10SM -RA SCT027 BKN039 OVC085 04/M01 A2989 RMK AO2 PK WND 32037/2338 RAB49 SLP127 P0000 60001 T00391006 10111 20039 53028

EXPIRED METARs :
  • 092253Z 32016G27KT 10SM SCT038 BKN065 OVC100 06/01 A2986 RMK AO2 PK WND 29045/2218 RAB17E42 SLP116 P0001 T00560011
  • 092153Z 30020G37KT 10SM FEW065 OVC090 10/M04 A2981 RMK AO2 PK WND 31043/2059 SLP097 T01001044

TAF KCMI
Valid from the 10 at 00:00 until the 11 at 00:00 UTC


092332Z 1000/1024 32018G28KT P6SM VCSH SCT040 BKN070
FM100100 31018G27KT P6SM SCT040
FM100300 31014G24KT P6SM FEW200
FM101200 31011KT P6SM FEW250
FM101700 29012G20KT P6SM FEW200



MET'MAP, your aeronautical weather chart ! - Copyright ORBIFLY December 2007 - Disclaimer

ORBIFLY MET'MAP TEAM :

Programming & Development : Alexandra Zaïnal
Concept & original design : Baudouin d'Aumeries
Assistance for programming : Marc-Olivier Méhu
Technical & hardware support : Manuel Goepfert

Contact : metmap@orbifly.com




SOURCES & CREDITS :

   NOAA       Earth
Advisory